createdAt,value
2022-08-02T00:00:43.167Z,16.90
2022-08-02T00:03:11.527Z,16.80
2022-08-02T00:05:40.334Z,16.80
2022-08-02T00:08:08.809Z,16.80
2022-08-02T00:10:37.798Z,16.80
2022-08-02T00:13:06.032Z,16.70
2022-08-02T00:15:34.333Z,16.80
2022-08-02T00:18:04.067Z,16.70
2022-08-02T00:20:32.391Z,16.70
2022-08-02T00:23:00.715Z,16.80
2022-08-02T00:25:28.967Z,16.70
2022-08-02T00:27:57.451Z,16.70
2022-08-02T00:30:25.936Z,16.70
2022-08-02T00:32:54.312Z,16.70
2022-08-02T00:35:23.937Z,16.70
2022-08-02T00:37:52.221Z,16.60
2022-08-02T00:40:24.075Z,16.60
2022-08-02T00:43:04.225Z,16.60
2022-08-02T00:46:02.442Z,16.50
2022-08-02T00:48:21.217Z,16.60
2022-08-02T00:50:50.885Z,16.60
2022-08-02T00:53:19.315Z,16.50
2022-08-02T00:55:47.524Z,16.50
2022-08-02T00:58:17.406Z,16.60
2022-08-02T01:00:45.752Z,16.60
2022-08-02T01:03:14.108Z,16.60
2022-08-02T01:06:02.142Z,16.50
2022-08-02T01:08:33.795Z,16.50
2022-08-02T01:11:02.171Z,16.50
2022-08-02T01:13:30.623Z,16.50
2022-08-02T01:16:05.270Z,16.40
2022-08-02T01:18:38.825Z,16.50
2022-08-02T01:21:22.352Z,16.40
2022-08-02T01:24:02.223Z,16.40
2022-08-02T01:26:40.360Z,16.40
2022-08-02T01:29:16.126Z,16.40
2022-08-02T01:31:49.885Z,16.40
2022-08-02T01:34:21.806Z,16.40
2022-08-02T01:36:56.695Z,16.40
2022-08-02T01:39:32.208Z,16.40
2022-08-02T01:42:02.119Z,16.40
2022-08-02T01:44:35.483Z,16.30
2022-08-02T01:47:07.342Z,16.40
2022-08-02T01:49:38.031Z,16.40
2022-08-02T01:52:23.958Z,16.40
2022-08-02T01:54:57.685Z,16.40
2022-08-02T01:57:28.447Z,16.30
2022-08-02T02:00:01.625Z,16.40
2022-08-02T02:02:32.034Z,16.30
2022-08-02T02:05:02.983Z,16.30
2022-08-02T02:07:34.278Z,16.30
2022-08-02T02:10:04.628Z,16.30
2022-08-02T02:12:35.983Z,16.30
2022-08-02T02:15:07.757Z,16.30
2022-08-02T02:17:50.578Z,16.30
2022-08-02T02:20:25.510Z,16.30
2022-08-02T02:22:54.407Z,16.40
2022-08-02T02:25:31.661Z,16.40
2022-08-02T02:28:09.252Z,16.40
2022-08-02T02:30:41.108Z,16.50
2022-08-02T02:33:10.724Z,16.50
2022-08-02T02:35:40.752Z,16.50
2022-08-02T02:38:14.455Z,16.60
2022-08-02T02:40:44.199Z,16.70
2022-08-02T02:43:14.880Z,16.70
2022-08-02T02:45:46.100Z,16.80
2022-08-02T02:48:16.881Z,16.80
2022-08-02T02:50:45.691Z,16.80
2022-08-02T02:53:17.744Z,16.80
2022-08-02T02:56:01.591Z,16.70
2022-08-02T02:58:32.119Z,16.70
2022-08-02T03:01:19.690Z,16.70
2022-08-02T03:03:48.802Z,16.70
2022-08-02T03:06:17.209Z,16.70
2022-08-02T03:08:45.564Z,16.70
2022-08-02T03:11:16.266Z,16.70
2022-08-02T03:13:45.134Z,16.70
2022-08-02T03:16:15.584Z,16.70
2022-08-02T03:18:44.993Z,16.70
2022-08-02T03:21:14.805Z,16.70
2022-08-02T03:23:44.247Z,16.70
2022-08-02T03:26:12.709Z,16.70
2022-08-02T03:28:41.288Z,16.70
2022-08-02T03:31:09.651Z,16.70
2022-08-02T03:33:40.664Z,16.60
2022-08-02T03:36:13.416Z,16.60
2022-08-02T03:38:42.828Z,16.50
2022-08-02T03:41:13.794Z,16.50
2022-08-02T03:43:43.811Z,16.60
2022-08-02T03:46:13.881Z,16.60
2022-08-02T03:48:44.169Z,16.60
2022-08-02T03:51:14.176Z,16.50
2022-08-02T03:53:43.328Z,16.50
2022-08-02T03:56:12.840Z,16.50
2022-08-02T03:58:43.608Z,16.50
2022-08-02T04:01:14.533Z,16.50
2022-08-02T04:03:44.160Z,16.60
2022-08-02T04:06:12.584Z,16.60
2022-08-02T04:08:44.202Z,16.70
2022-08-02T04:11:29.802Z,16.70
2022-08-02T04:13:59.175Z,16.80
2022-08-02T04:16:35.459Z,16.90
2022-08-02T04:19:08.879Z,16.90
2022-08-02T04:21:48.593Z,17.00
2022-08-02T04:24:24.604Z,17.10
2022-08-02T04:26:57.816Z,17.10
2022-08-02T04:29:36.080Z,17.20
2022-08-02T04:32:05.178Z,17.20
2022-08-02T04:34:35.385Z,17.30
2022-08-02T04:37:03.947Z,17.30
2022-08-02T04:39:32.957Z,17.40
2022-08-02T04:42:01.216Z,17.50
2022-08-02T04:44:29.487Z,17.60
2022-08-02T04:46:58.208Z,17.70
2022-08-02T04:49:26.508Z,17.80
2022-08-02T04:51:56.392Z,17.80
2022-08-02T04:54:25.768Z,17.90
2022-08-02T04:56:54.065Z,18.00
2022-08-02T04:59:22.566Z,18.10
2022-08-02T05:01:50.957Z,18.20
2022-08-02T05:04:19.205Z,18.30
2022-08-02T05:06:47.581Z,18.40
2022-08-02T05:09:17.192Z,18.60
2022-08-02T05:11:45.754Z,18.80
2022-08-02T05:14:23.574Z,18.90
2022-08-02T05:16:51.834Z,19.10
2022-08-02T05:19:20.091Z,19.20
2022-08-02T05:21:48.738Z,19.40
2022-08-02T05:24:18.554Z,19.50
2022-08-02T05:26:46.900Z,19.60
2022-08-02T05:29:15.153Z,19.80
2022-08-02T05:31:43.466Z,19.90
2022-08-02T05:34:12.266Z,20.00
2022-08-02T05:36:42.144Z,20.10
2022-08-02T05:39:10.831Z,20.10
2022-08-02T05:41:42.139Z,20.20
2022-08-02T05:44:10.477Z,20.20
2022-08-02T05:46:38.975Z,20.20
2022-08-02T05:49:07.372Z,20.20
2022-08-02T05:51:39.967Z,20.20
2022-08-02T05:54:15.980Z,20.30
2022-08-02T05:56:52.024Z,20.40
2022-08-02T05:59:31.242Z,20.50
2022-08-02T06:02:05.720Z,20.70
2022-08-02T06:04:44.504Z,20.90
2022-08-02T06:07:13.750Z,21.10
2022-08-02T06:09:42.856Z,21.30
2022-08-02T06:12:15.061Z,21.70
2022-08-02T06:14:44.219Z,22.00
2022-08-02T06:17:13.739Z,22.20
2022-08-02T06:19:51.419Z,22.40
2022-08-02T06:22:33.327Z,22.40
2022-08-02T06:25:06.456Z,22.50
2022-08-02T06:27:42.489Z,22.50
2022-08-02T06:30:12.024Z,22.50
2022-08-02T06:32:40.614Z,22.60
2022-08-02T06:35:10.022Z,22.70
2022-08-02T06:37:45.980Z,22.70
2022-08-02T06:40:19.872Z,22.70
2022-08-02T06:42:57.865Z,22.70
2022-08-02T06:45:26.164Z,22.70
2022-08-02T06:47:55.720Z,22.70
2022-08-02T06:50:24.086Z,22.70
2022-08-02T06:52:52.319Z,22.80
2022-08-02T06:55:20.717Z,22.70
2022-08-02T06:57:50.416Z,22.90
2022-08-02T07:00:22.073Z,22.80
2022-08-02T07:02:51.843Z,22.80
2022-08-02T07:05:20.529Z,22.90
2022-08-02T07:07:48.953Z,23.20
2022-08-02T07:10:17.439Z,23.50
2022-08-02T07:12:45.685Z,23.80
2022-08-02T07:15:16.383Z,24.00
2022-08-02T07:17:44.809Z,24.20
2022-08-02T07:20:13.583Z,24.40
2022-08-02T07:22:42.589Z,24.50
2022-08-02T07:25:11.224Z,24.60
2022-08-02T07:27:39.488Z,24.80
2022-08-02T07:30:09.165Z,24.90
2022-08-02T07:32:39.142Z,25.10
2022-08-02T07:35:09.088Z,25.10
2022-08-02T07:37:55.320Z,25.20
2022-08-02T07:40:28.988Z,25.30
2022-08-02T07:43:03.338Z,25.20
2022-08-02T07:45:35.984Z,25.20
2022-08-02T07:48:08.451Z,25.20
2022-08-02T07:50:36.883Z,25.10
2022-08-02T07:53:05.209Z,25.20
2022-08-02T07:55:39.585Z,25.30
2022-08-02T07:58:11.204Z,25.50
2022-08-02T08:00:43.792Z,25.70
2022-08-02T08:03:13.563Z,25.70
2022-08-02T08:05:42.317Z,25.70
2022-08-02T08:08:16.743Z,25.90
2022-08-02T08:10:46.026Z,25.90
2022-08-02T08:13:14.308Z,25.80
2022-08-02T08:15:51.775Z,25.70
2022-08-02T08:18:23.354Z,25.60
2022-08-02T08:20:52.003Z,25.40
2022-08-02T08:23:20.589Z,25.40
2022-08-02T08:25:49.195Z,25.30
2022-08-02T08:28:17.452Z,25.20
2022-08-02T08:30:47.351Z,25.20
2022-08-02T08:33:16.019Z,25.10
2022-08-02T08:35:45.735Z,25.30
2022-08-02T08:38:15.619Z,25.50
2022-08-02T08:40:44.799Z,25.90
2022-08-02T08:43:14.753Z,26.10
2022-08-02T08:45:44.907Z,26.10
2022-08-02T08:48:30.458Z,26.10
2022-08-02T08:51:08.311Z,26.20
2022-08-02T08:53:43.747Z,26.10
2022-08-02T08:56:16.312Z,26.10
2022-08-02T08:58:46.073Z,26.00
2022-08-02T09:01:15.455Z,25.90
2022-08-02T09:03:44.357Z,25.90
2022-08-02T09:06:13.957Z,25.90
2022-08-02T09:08:42.248Z,25.90
2022-08-02T09:11:15.751Z,25.80
2022-08-02T09:13:51.732Z,25.80
2022-08-02T09:16:30.517Z,25.80
2022-08-02T09:18:58.970Z,26.00
2022-08-02T09:21:38.822Z,26.10
2022-08-02T09:24:18.584Z,26.10
2022-08-02T09:26:48.001Z,26.10
2022-08-02T09:29:17.293Z,26.10
2022-08-02T09:31:49.982Z,26.20
2022-08-02T09:34:19.942Z,26.30
2022-08-02T09:36:54.536Z,26.40
2022-08-02T09:39:26.429Z,26.40
2022-08-02T09:42:08.343Z,26.60
2022-08-02T09:44:36.629Z,26.70
2022-08-02T09:47:16.512Z,26.80
2022-08-02T09:49:52.595Z,26.90
2022-08-02T09:52:37.356Z,27.00
2022-08-02T09:55:13.396Z,26.90
2022-08-02T09:57:41.769Z,26.90
2022-08-02T10:00:15.023Z,27.00
2022-08-02T10:03:07.771Z,27.00
2022-08-02T10:05:57.339Z,27.10
2022-08-02T10:08:34.213Z,27.30
2022-08-02T10:11:03.584Z,27.50
2022-08-02T10:13:33.611Z,27.70
2022-08-02T10:16:03.504Z,27.80
2022-08-02T10:18:40.927Z,27.80
2022-08-02T10:21:14.329Z,27.90
2022-08-02T10:23:46.101Z,28.10
2022-08-02T10:26:17.386Z,28.30
2022-08-02T10:28:49.334Z,28.40
2022-08-02T10:31:21.824Z,28.50
2022-08-02T10:33:52.944Z,28.50
2022-08-02T10:36:23.725Z,28.70
2022-08-02T10:38:54.911Z,28.90
2022-08-02T10:41:41.767Z,28.90
2022-08-02T10:44:25.042Z,28.80
2022-08-02T10:46:54.313Z,29.00
2022-08-02T10:49:39.096Z,29.10
2022-08-02T10:52:15.047Z,29.20
2022-08-02T10:54:50.253Z,29.10
2022-08-02T10:57:24.618Z,29.30
2022-08-02T10:59:56.536Z,29.40
2022-08-02T11:02:39.304Z,29.60
2022-08-02T11:05:10.283Z,29.90
2022-08-02T11:07:41.958Z,30.00
2022-08-02T11:10:35.701Z,30.20
2022-08-02T11:13:08.234Z,30.40
2022-08-02T11:15:58.921Z,30.40
2022-08-02T11:19:00.740Z,30.70
2022-08-02T11:21:30.108Z,31.00
2022-08-02T11:24:25.539Z,31.00
2022-08-02T11:26:55.692Z,30.90
2022-08-02T11:29:32.441Z,30.80
2022-08-02T11:32:07.897Z,30.60
2022-08-02T11:34:37.266Z,30.50
2022-08-02T11:37:07.604Z,30.30
2022-08-02T11:39:36.031Z,30.10
2022-08-02T11:42:06.908Z,30.10
2022-08-02T11:44:41.861Z,29.90
2022-08-02T11:47:10.309Z,29.90
2022-08-02T11:49:38.811Z,30.00
2022-08-02T11:52:11.171Z,30.10
2022-08-02T11:54:41.399Z,30.20
2022-08-02T11:57:19.792Z,30.30
2022-08-02T11:59:51.144Z,30.60
2022-08-02T12:02:20.671Z,30.70
2022-08-02T12:04:58.487Z,30.60
2022-08-02T12:07:34.435Z,30.50
2022-08-02T12:10:06.984Z,30.60
2022-08-02T12:12:48.941Z,30.60
2022-08-02T12:15:29.406Z,30.50
2022-08-02T12:18:15.729Z,30.50
2022-08-02T12:20:44.024Z,30.30
2022-08-02T12:23:12.537Z,30.10
2022-08-02T12:25:41.120Z,30.10
2022-08-02T12:28:19.854Z,30.10
2022-08-02T12:30:53.209Z,30.10
2022-08-02T12:33:22.430Z,30.30
2022-08-02T12:35:50.943Z,30.50
2022-08-02T12:38:19.422Z,30.70
2022-08-02T12:40:48.334Z,30.80
2022-08-02T12:43:22.703Z,30.80
2022-08-02T12:45:53.321Z,30.80
2022-08-02T12:48:38.373Z,31.00
2022-08-02T12:51:23.170Z,31.10
2022-08-02T12:53:52.694Z,31.20
2022-08-02T12:56:30.144Z,31.40
2022-08-02T12:59:00.081Z,31.60
2022-08-02T13:01:30.030Z,31.80
2022-08-02T13:04:09.711Z,31.80
2022-08-02T13:06:44.426Z,31.70
2022-08-02T13:09:15.203Z,31.70
2022-08-02T13:11:44.528Z,31.70
2022-08-02T13:14:15.853Z,31.60
2022-08-02T13:16:46.062Z,31.50
2022-08-02T13:19:15.742Z,31.30
2022-08-02T13:22:01.049Z,31.40
2022-08-02T13:24:40.525Z,31.40
2022-08-02T13:27:21.323Z,31.10
2022-08-02T13:29:51.512Z,31.10
2022-08-02T13:32:19.970Z,31.30
2022-08-02T13:34:48.913Z,31.30
2022-08-02T13:37:17.768Z,31.10
2022-08-02T13:40:05.574Z,31.10
2022-08-02T13:42:34.493Z,30.80
2022-08-02T13:45:14.227Z,30.80
2022-08-02T13:48:04.481Z,30.90
2022-08-02T13:50:32.086Z,31.00
2022-08-02T13:53:00.458Z,31.10
2022-08-02T13:55:29.144Z,31.10
2022-08-02T13:57:57.623Z,31.10
2022-08-02T14:00:35.110Z,31.20
2022-08-02T14:03:05.777Z,31.30
2022-08-02T14:05:46.774Z,31.20
2022-08-02T14:08:22.823Z,31.10
2022-08-02T14:10:52.427Z,31.00
2022-08-02T14:13:20.865Z,31.10
2022-08-02T14:15:50.802Z,31.10
2022-08-02T14:18:19.049Z,31.20
2022-08-02T14:20:47.418Z,31.20
2022-08-02T14:23:15.786Z,31.20
2022-08-02T14:25:44.203Z,31.10
2022-08-02T14:28:12.605Z,31.10
2022-08-02T14:30:41.000Z,31.10
2022-08-02T14:33:10.662Z,31.30
2022-08-02T14:35:39.051Z,31.40
2022-08-02T14:38:07.448Z,31.40
2022-08-02T14:40:35.952Z,31.40
2022-08-02T14:43:04.854Z,31.40
2022-08-02T14:45:36.673Z,31.50
2022-08-02T14:48:10.926Z,31.50
2022-08-02T14:50:40.139Z,31.60
2022-08-02T14:53:11.989Z,31.70
2022-08-02T14:55:42.440Z,31.60
2022-08-02T14:58:11.183Z,31.60
2022-08-02T15:00:41.180Z,31.50
2022-08-02T15:03:12.063Z,31.60
2022-08-02T15:05:40.541Z,31.60
2022-08-02T15:08:09.027Z,31.60
2022-08-02T15:10:37.410Z,31.70
2022-08-02T15:13:05.696Z,31.70
2022-08-02T15:15:42.965Z,31.60
2022-08-02T15:18:13.762Z,31.70
2022-08-02T15:20:46.221Z,31.80
2022-08-02T15:23:37.360Z,31.90
2022-08-02T15:26:07.536Z,31.80
2022-08-02T15:28:36.290Z,31.50
2022-08-02T15:31:04.585Z,31.50
2022-08-02T15:33:34.274Z,31.50
2022-08-02T15:36:02.616Z,31.40
2022-08-02T15:38:31.046Z,31.40
2022-08-02T15:40:59.434Z,31.40
2022-08-02T15:43:27.727Z,31.50
2022-08-02T15:45:56.011Z,31.50
2022-08-02T15:48:24.431Z,31.50
2022-08-02T15:50:54.157Z,31.60
2022-08-02T15:53:22.478Z,31.40
2022-08-02T15:56:04.359Z,31.50
2022-08-02T15:58:33.552Z,31.60
2022-08-02T16:01:10.891Z,31.70
2022-08-02T16:03:39.267Z,31.70
2022-08-02T16:06:09.003Z,31.70
2022-08-02T16:08:37.245Z,31.70
2022-08-02T16:11:05.594Z,31.60
2022-08-02T16:13:54.278Z,31.60
2022-08-02T16:16:24.604Z,31.60
2022-08-02T16:18:53.188Z,31.50
2022-08-02T16:21:24.602Z,31.50
2022-08-02T16:23:58.862Z,31.30
2022-08-02T16:26:31.394Z,31.20
2022-08-02T16:29:00.574Z,31.20
2022-08-02T16:31:29.071Z,31.10
2022-08-02T16:33:57.599Z,31.00
2022-08-02T16:36:28.287Z,31.00
2022-08-02T16:38:57.008Z,31.00
2022-08-02T16:44:14.024Z,31.20
2022-08-02T16:46:45.183Z,31.20
2022-08-02T16:50:07.207Z,31.10
2022-08-02T16:52:06.004Z,31.00
2022-08-02T16:54:38.422Z,31.00
2022-08-02T16:57:07.585Z,31.00
2022-08-02T16:59:42.913Z,30.90
2022-08-02T17:02:17.945Z,30.80
2022-08-02T17:04:47.495Z,30.80
2022-08-02T17:08:06.204Z,30.80
2022-08-02T17:10:09.356Z,30.90
2022-08-02T17:12:38.755Z,30.80
2022-08-02T17:16:17.034Z,30.70
2022-08-02T17:17:57.137Z,30.70
2022-08-02T17:20:25.728Z,30.60
2022-08-02T17:22:55.448Z,30.60
2022-08-02T17:25:29.098Z,30.60
2022-08-02T17:28:00.486Z,30.50
2022-08-02T17:30:29.532Z,30.40
2022-08-02T17:32:59.349Z,30.40
2022-08-02T17:35:43.532Z,30.40
2022-08-02T17:38:26.595Z,30.40
2022-08-02T17:40:55.836Z,30.30
2022-08-02T17:43:25.900Z,30.20
2022-08-02T17:46:00.469Z,30.10
2022-08-02T17:48:54.850Z,30.00
2022-08-02T17:52:14.723Z,30.00
2022-08-02T17:54:14.656Z,29.80
2022-08-02T17:56:47.819Z,29.70
2022-08-02T17:59:20.388Z,29.60
2022-08-02T18:01:52.991Z,29.50
2022-08-02T18:04:27.702Z,29.40
2022-08-02T18:06:58.163Z,29.40
2022-08-02T18:09:28.316Z,29.30
2022-08-02T18:11:57.179Z,29.20
2022-08-02T18:14:26.601Z,29.10
2022-08-02T18:16:55.261Z,29.00
2022-08-02T18:19:23.483Z,28.90
2022-08-02T18:22:02.927Z,28.80
2022-08-02T18:24:32.595Z,28.70
2022-08-02T18:27:00.965Z,28.70
2022-08-02T18:29:30.230Z,28.70
2022-08-02T18:32:11.664Z,28.70
2022-08-02T18:34:40.791Z,28.60
2022-08-02T18:37:17.703Z,28.60
2022-08-02T18:39:51.458Z,28.60
2022-08-02T18:42:20.181Z,28.50
2022-08-02T18:44:48.479Z,28.50
2022-08-02T18:47:16.855Z,28.50
2022-08-02T18:49:46.513Z,28.40
2022-08-02T18:52:30.682Z,28.40
2022-08-02T18:55:01.361Z,28.30
2022-08-02T18:58:01.921Z,28.20
2022-08-02T19:00:20.500Z,28.20
2022-08-02T19:02:53.966Z,28.00
2022-08-02T19:05:24.260Z,27.90
2022-08-02T19:08:12.831Z,27.70
2022-08-02T19:10:49.295Z,27.50
2022-08-02T19:13:18.867Z,27.40
2022-08-02T19:15:47.780Z,27.20
2022-08-02T19:18:16.277Z,27.10
2022-08-02T19:20:48.059Z,26.90
2022-08-02T19:23:17.341Z,26.70
2022-08-02T19:25:54.810Z,26.60
2022-08-02T19:28:26.012Z,26.40
2022-08-02T19:30:55.340Z,26.20
2022-08-02T19:33:54.325Z,26.10
2022-08-02T19:36:13.096Z,26.00
2022-08-02T19:38:49.143Z,25.90
2022-08-02T19:41:22.122Z,25.80
2022-08-02T19:44:23.386Z,25.60
2022-08-02T19:46:41.535Z,25.50
2022-08-02T19:49:20.167Z,25.40
2022-08-02T19:51:58.552Z,25.30
2022-08-02T19:54:38.789Z,25.20
2022-08-02T19:57:19.301Z,25.00
2022-08-02T19:59:48.085Z,24.90
2022-08-02T20:02:18.948Z,24.70
2022-08-02T20:04:50.105Z,24.60
2022-08-02T20:07:54.810Z,24.50
2022-08-02T20:13:00.883Z,24.20
2022-08-02T20:15:56.420Z,24.20
2022-08-02T20:18:26.568Z,24.20
2022-08-02T20:20:55.193Z,24.10
2022-08-02T20:23:32.627Z,24.00
2022-08-02T20:26:02.523Z,23.90
2022-08-02T20:28:32.198Z,23.80
2022-08-02T20:31:07.085Z,23.70
2022-08-02T20:33:55.922Z,23.60
2022-08-02T20:36:25.195Z,23.50
2022-08-02T20:38:54.469Z,23.40
2022-08-02T20:41:23.057Z,23.30
2022-08-02T20:43:52.756Z,23.30
2022-08-02T20:46:23.100Z,23.20
2022-08-02T20:48:51.893Z,23.10
2022-08-02T20:51:30.398Z,23.00
2022-08-02T20:54:02.607Z,23.00
2022-08-02T20:56:31.010Z,22.90
2022-08-02T21:01:57.215Z,22.70
2022-08-02T21:04:26.569Z,22.70
2022-08-02T21:06:55.844Z,22.60
2022-08-02T21:09:52.923Z,22.50
2022-08-02T21:12:13.393Z,22.50
2022-08-02T21:14:42.991Z,22.40
2022-08-02T21:17:11.409Z,22.40
2022-08-02T21:19:46.538Z,22.30
2022-08-02T21:22:15.482Z,22.20
2022-08-02T21:24:43.936Z,22.20
2022-08-02T21:27:51.669Z,22.20
2022-08-02T21:30:12.540Z,22.20
2022-08-02T21:32:40.987Z,22.10
2022-08-02T21:35:10.535Z,22.10
2022-08-02T21:37:45.084Z,22.00
2022-08-02T21:40:14.205Z,21.90
2022-08-02T21:42:42.738Z,21.90
2022-08-02T21:45:17.288Z,21.90
2022-08-02T21:47:48.223Z,21.80
2022-08-02T21:50:16.818Z,21.80
2022-08-02T21:52:52.176Z,21.70
2022-08-02T21:55:24.294Z,21.60
2022-08-02T21:58:09.751Z,21.50
2022-08-02T22:00:39.747Z,21.50
2022-08-02T22:03:23.076Z,21.30
2022-08-02T22:05:52.074Z,21.30
2022-08-02T22:08:22.033Z,21.20
2022-08-02T22:11:03.941Z,21.10
2022-08-02T22:13:38.820Z,21.10
2022-08-02T22:16:18.520Z,21.20
2022-08-02T22:21:55.010Z,21.10
2022-08-02T22:27:11.843Z,21.00
2022-08-02T22:29:42.049Z,21.00
2022-08-02T22:32:21.880Z,20.90
2022-08-02T22:34:51.689Z,20.80
2022-08-02T22:38:17.174Z,20.80
2022-08-02T22:40:10.389Z,20.70
2022-08-02T22:42:40.171Z,20.70
2022-08-02T22:45:09.969Z,20.70
2022-08-02T22:47:50.846Z,20.60
2022-08-02T22:50:20.211Z,20.60
2022-08-02T22:52:50.389Z,20.60
2022-08-02T22:55:19.140Z,20.50
2022-08-02T22:57:56.401Z,20.50
2022-08-02T22:58:34.210Z,31.20
2022-08-02T22:58:56.732Z,22.80
2022-08-02T22:59:04.573Z,21.10
2022-08-02T22:59:07.626Z,24.40
2022-08-02T22:59:12.809Z,21.10
2022-08-02T23:00:26.041Z,20.40
2022-08-02T23:02:57.687Z,20.40
2022-08-02T23:05:26.953Z,20.40
2022-08-02T23:07:55.256Z,20.40
2022-08-02T23:10:23.770Z,20.30
2022-08-02T23:12:56.160Z,20.20
2022-08-02T23:15:24.657Z,20.20
2022-08-02T23:18:10.526Z,20.20
2022-08-02T23:20:40.177Z,20.10
2022-08-02T23:23:11.841Z,20.10
2022-08-02T23:25:40.334Z,20.00
2022-08-02T23:28:08.824Z,20.00
2022-08-02T23:30:38.495Z,20.00
2022-08-02T23:33:06.752Z,19.90
2022-08-02T23:35:35.022Z,20.00
2022-08-02T23:38:05.104Z,19.90
2022-08-02T23:40:40.240Z,19.90
2022-08-02T23:43:13.892Z,19.80
2022-08-02T23:45:45.204Z,19.80
2022-08-02T23:48:13.443Z,19.80
2022-08-02T23:50:41.740Z,19.70
2022-08-02T23:53:11.371Z,19.70
2022-08-02T23:55:39.623Z,19.70
2022-08-02T23:58:07.812Z,19.60
